sensor_id;sensor_type;location;lat;lon;timestamp;pressure;altitude;pressure_sealevel;temperature
70533;BMP180;58088;51.186;17.130;2023-03-23T00:02:15;99659.00;;;11.30
70533;BMP180;58088;51.186;17.130;2023-03-23T00:04:41;99655.60;;;11.30
70533;BMP180;58088;51.186;17.130;2023-03-23T00:07:08;99648.80;;;11.30
70533;BMP180;58088;51.186;17.130;2023-03-23T00:09:35;99650.40;;;11.30
70533;BMP180;58088;51.186;17.130;2023-03-23T00:12:07;99652.00;;;11.24
70533;BMP180;58088;51.186;17.130;2023-03-23T00:14:34;99653.40;;;11.28
70533;BMP180;58088;51.186;17.130;2023-03-23T00:17:09;99643.60;;;11.30
70533;BMP180;58088;51.186;17.130;2023-03-23T00:19:38;99649.80;;;11.30
70533;BMP180;58088;51.186;17.130;2023-03-23T00:22:15;99655.00;;;11.30
70533;BMP180;58088;51.186;17.130;2023-03-23T00:24:43;99656.80;;;11.30
70533;BMP180;58088;51.186;17.130;2023-03-23T00:27:10;99657.60;;;11.30
70533;BMP180;58088;51.186;17.130;2023-03-23T00:29:42;99654.40;;;11.28
70533;BMP180;58088;51.186;17.130;2023-03-23T00:32:12;99654.80;;;11.20
70533;BMP180;58088;51.186;17.130;2023-03-23T00:34:41;99652.00;;;11.20
70533;BMP180;58088;51.186;17.130;2023-03-23T00:37:10;99649.00;;;11.20
70533;BMP180;58088;51.186;17.130;2023-03-23T00:39:38;99646.20;;;11.20
70533;BMP180;58088;51.186;17.130;2023-03-23T00:42:05;99633.80;;;11.20
70533;BMP180;58088;51.186;17.130;2023-03-23T00:44:33;99635.60;;;11.20
70533;BMP180;58088;51.186;17.130;2023-03-23T00:47:03;99639.80;;;11.20
70533;BMP180;58088;51.186;17.130;2023-03-23T00:49:31;99636.80;;;11.20
70533;BMP180;58088;51.186;17.130;2023-03-23T00:52:01;99637.20;;;11.20
70533;BMP180;58088;51.186;17.130;2023-03-23T00:54:29;99646.00;;;11.20
70533;BMP180;58088;51.186;17.130;2023-03-23T00:56:55;99637.40;;;11.26
70533;BMP180;58088;51.186;17.130;2023-03-23T00:59:22;99641.00;;;11.30
70533;BMP180;58088;51.186;17.130;2023-03-23T01:01:51;99634.00;;;11.30
70533;BMP180;58088;51.186;17.130;2023-03-23T01:04:19;99629.40;;;11.30
70533;BMP180;58088;51.186;17.130;2023-03-23T01:06:50;99626.80;;;11.30
70533;BMP180;58088;51.186;17.130;2023-03-23T01:09:19;99627.40;;;11.30
70533;BMP180;58088;51.186;17.130;2023-03-23T01:11:50;99626.60;;;11.30
70533;BMP180;58088;51.186;17.130;2023-03-23T01:14:19;99620.20;;;11.34
70533;BMP180;58088;51.186;17.130;2023-03-23T01:16:45;99622.20;;;11.32
70533;BMP180;58088;51.186;17.130;2023-03-23T01:19:12;99623.40;;;11.30
70533;BMP180;58088;51.186;17.130;2023-03-23T01:21:38;99628.20;;;11.30
70533;BMP180;58088;51.186;17.130;2023-03-23T01:24:05;99626.20;;;11.30
70533;BMP180;58088;51.186;17.130;2023-03-23T01:26:32;99618.60;;;11.36
70533;BMP180;58088;51.186;17.130;2023-03-23T01:28:58;99616.60;;;11.36
70533;BMP180;58088;51.186;17.130;2023-03-23T01:31:26;99618.20;;;11.38
70533;BMP180;58088;51.186;17.130;2023-03-23T01:33:53;99618.40;;;11.30
70533;BMP180;58088;51.186;17.130;2023-03-23T01:36:27;99623.40;;;11.38
70533;BMP180;58088;51.186;17.130;2023-03-23T01:39:01;99621.80;;;11.40
70533;BMP180;58088;51.186;17.130;2023-03-23T01:41:32;99617.00;;;11.40
70533;BMP180;58088;51.186;17.130;2023-03-23T01:44:08;99609.80;;;11.40
70533;BMP180;58088;51.186;17.130;2023-03-23T01:47:04;99598.40;;;11.40
70533;BMP180;58088;51.186;17.130;2023-03-23T01:49:38;99603.20;;;11.40
70533;BMP180;58088;51.186;17.130;2023-03-23T01:52:14;99599.40;;;11.40
70533;BMP180;58088;51.186;17.130;2023-03-23T01:54:46;99598.80;;;11.40
70533;BMP180;58088;51.186;17.130;2023-03-23T01:57:19;99600.20;;;11.40
70533;BMP180;58088;51.186;17.130;2023-03-23T01:59:53;99599.40;;;11.50
70533;BMP180;58088;51.186;17.130;2023-03-23T02:02:27;99599.40;;;11.50
70533;BMP180;58088;51.186;17.130;2023-03-23T02:04:59;99589.80;;;11.50
70533;BMP180;58088;51.186;17.130;2023-03-23T02:07:28;99596.60;;;11.50
70533;BMP180;58088;51.186;17.130;2023-03-23T02:09:56;99597.60;;;11.50
70533;BMP180;58088;51.186;17.130;2023-03-23T02:12:23;99593.00;;;11.50
70533;BMP180;58088;51.186;17.130;2023-03-23T02:14:50;99587.40;;;11.50
70533;BMP180;58088;51.186;17.130;2023-03-23T02:18:14;99584.80;;;11.50
70533;BMP180;58088;51.186;17.130;2023-03-23T02:35:01;99584.60;;;11.50
70533;BMP180;58088;51.186;17.130;2023-03-23T02:37:52;99576.60;;;11.50
70533;BMP180;58088;51.186;17.130;2023-03-23T02:40:30;99567.00;;;11.48
70533;BMP180;58088;51.186;17.130;2023-03-23T02:43:00;99570.80;;;11.40
70533;BMP180;58088;51.186;17.130;2023-03-23T02:45:29;99563.00;;;11.40
70533;BMP180;58088;51.186;17.130;2023-03-23T02:47:58;99561.00;;;11.30
70533;BMP180;58088;51.186;17.130;2023-03-23T02:50:28;99560.60;;;11.30
70533;BMP180;58088;51.186;17.130;2023-03-23T02:52:57;99554.20;;;11.30
70533;BMP180;58088;51.186;17.130;2023-03-23T02:55:27;99558.20;;;11.30
70533;BMP180;58088;51.186;17.130;2023-03-23T02:57:56;99551.20;;;11.30
70533;BMP180;58088;51.186;17.130;2023-03-23T03:00:23;99553.60;;;11.30
70533;BMP180;58088;51.186;17.130;2023-03-23T03:02:55;99556.00;;;11.36
70533;BMP180;58088;51.186;17.130;2023-03-23T03:08:53;99558.20;;;11.40
70533;BMP180;58088;51.186;17.130;2023-03-23T03:11:21;99555.80;;;11.40
70533;BMP180;58088;51.186;17.130;2023-03-23T03:14:03;99557.00;;;11.40
70533;BMP180;58088;51.186;17.130;2023-03-23T03:16:42;99554.60;;;11.46
70533;BMP180;58088;51.186;17.130;2023-03-23T03:19:21;99550.80;;;11.50
70533;BMP180;58088;51.186;17.130;2023-03-23T03:21:54;99547.80;;;11.50
70533;BMP180;58088;51.186;17.130;2023-03-23T03:24:30;99546.60;;;11.50
70533;BMP180;58088;51.186;17.130;2023-03-23T03:27:00;99542.00;;;11.60
70533;BMP180;58088;51.186;17.130;2023-03-23T03:29:36;99542.20;;;11.70
70533;BMP180;58088;51.186;17.130;2023-03-23T03:32:12;99541.60;;;11.70
70533;BMP180;58088;51.186;17.130;2023-03-23T03:34:41;99539.80;;;11.80
70533;BMP180;58088;51.186;17.130;2023-03-23T03:37:07;99531.60;;;11.80
70533;BMP180;58088;51.186;17.130;2023-03-23T03:39:36;99527.60;;;11.82
70533;BMP180;58088;51.186;17.130;2023-03-23T03:42:05;99527.20;;;11.90
70533;BMP180;58088;51.186;17.130;2023-03-23T03:44:33;99532.20;;;11.92
70533;BMP180;58088;51.186;17.130;2023-03-23T03:47:00;99538.60;;;12.00
70533;BMP180;58088;51.186;17.130;2023-03-23T03:49:26;99526.60;;;12.00
70533;BMP180;58088;51.186;17.130;2023-03-23T03:51:54;99530.60;;;12.10
70533;BMP180;58088;51.186;17.130;2023-03-23T03:54:40;99524.60;;;12.10
70533;BMP180;58088;51.186;17.130;2023-03-23T03:57:07;99526.00;;;12.10
70533;BMP180;58088;51.186;17.130;2023-03-23T04:00:05;99523.20;;;12.10
70533;BMP180;58088;51.186;17.130;2023-03-23T04:02:47;99523.20;;;12.20
70533;BMP180;58088;51.186;17.130;2023-03-23T04:05:18;99517.00;;;12.18
70533;BMP180;58088;51.186;17.130;2023-03-23T04:07:47;99522.60;;;12.20
70533;BMP180;58088;51.186;17.130;2023-03-23T04:10:15;99523.80;;;12.20
70533;BMP180;58088;51.186;17.130;2023-03-23T04:12:42;99524.60;;;12.20
70533;BMP180;58088;51.186;17.130;2023-03-23T04:15:35;99529.20;;;12.20
70533;BMP180;58088;51.186;17.130;2023-03-23T04:18:02;99525.00;;;12.20
70533;BMP180;58088;51.186;17.130;2023-03-23T04:20:28;99519.60;;;12.20
70533;BMP180;58088;51.186;17.130;2023-03-23T04:22:55;99530.80;;;12.20
70533;BMP180;58088;51.186;17.130;2023-03-23T04:25:23;99528.00;;;12.20
70533;BMP180;58088;51.186;17.130;2023-03-23T04:27:52;99526.60;;;12.12
70533;BMP180;58088;51.186;17.130;2023-03-23T04:30:24;99525.80;;;12.10
70533;BMP180;58088;51.186;17.130;2023-03-23T04:33:11;99529.20;;;12.10
70533;BMP180;58088;51.186;17.130;2023-03-23T04:35:44;99526.60;;;12.10
70533;BMP180;58088;51.186;17.130;2023-03-23T04:38:21;99528.40;;;12.10
70533;BMP180;58088;51.186;17.130;2023-03-23T04:40:53;99525.40;;;12.10
70533;BMP180;58088;51.186;17.130;2023-03-23T04:43:34;99529.20;;;12.10
70533;BMP180;58088;51.186;17.130;2023-03-23T04:46:27;99529.80;;;12.12
70533;BMP180;58088;51.186;17.130;2023-03-23T04:48:57;99524.40;;;12.20
70533;BMP180;58088;51.186;17.130;2023-03-23T04:51:31;99531.20;;;12.20
70533;BMP180;58088;51.186;17.130;2023-03-23T04:54:04;99526.80;;;12.20
70533;BMP180;58088;51.186;17.130;2023-03-23T04:56:31;99527.60;;;12.22
70533;BMP180;58088;51.186;17.130;2023-03-23T04:59:02;99525.00;;;12.30
70533;BMP180;58088;51.186;17.130;2023-03-23T05:01:41;99521.80;;;12.30
70533;BMP180;58088;51.186;17.130;2023-03-23T05:04:17;99523.20;;;12.30
70533;BMP180;58088;51.186;17.130;2023-03-23T05:06:51;99517.80;;;12.32
70533;BMP180;58088;51.186;17.130;2023-03-23T05:09:22;99511.20;;;12.40
70533;BMP180;58088;51.186;17.130;2023-03-23T05:11:48;99508.40;;;12.40
70533;BMP180;58088;51.186;17.130;2023-03-23T05:14:15;99499.40;;;12.44
70533;BMP180;58088;51.186;17.130;2023-03-23T05:16:43;99496.60;;;12.50
70533;BMP180;58088;51.186;17.130;2023-03-23T05:19:13;99498.00;;;12.60
70533;BMP180;58088;51.186;17.130;2023-03-23T05:21:40;99494.40;;;12.62
70533;BMP180;58088;51.186;17.130;2023-03-23T05:24:07;99497.60;;;12.70
70533;BMP180;58088;51.186;17.130;2023-03-23T05:26:33;99502.80;;;12.80
70533;BMP180;58088;51.186;17.130;2023-03-23T05:29:04;99497.00;;;12.80
70533;BMP180;58088;51.186;17.130;2023-03-23T05:31:42;99498.00;;;12.90
70533;BMP180;58088;51.186;17.130;2023-03-23T05:34:08;99492.60;;;13.00
70533;BMP180;58088;51.186;17.130;2023-03-23T05:36:45;99499.00;;;13.04
70533;BMP180;58088;51.186;17.130;2023-03-23T05:39:44;99496.00;;;13.10
70533;BMP180;58088;51.186;17.130;2023-03-23T05:42:16;99501.60;;;13.20
70533;BMP180;58088;51.186;17.130;2023-03-23T05:44:49;99497.40;;;13.30
70533;BMP180;58088;51.186;17.130;2023-03-23T05:47:16;99500.20;;;13.38
70533;BMP180;58088;51.186;17.130;2023-03-23T05:49:47;99498.60;;;13.40
70533;BMP180;58088;51.186;17.130;2023-03-23T05:52:16;99503.80;;;13.50
70533;BMP180;58088;51.186;17.130;2023-03-23T05:54:42;99504.40;;;13.50
70533;BMP180;58088;51.186;17.130;2023-03-23T05:57:09;99501.00;;;13.60
70533;BMP180;58088;51.186;17.130;2023-03-23T05:59:49;99502.60;;;13.70
70533;BMP180;58088;51.186;17.130;2023-03-23T06:02:20;99501.00;;;13.70
70533;BMP180;58088;51.186;17.130;2023-03-23T06:04:47;99497.80;;;13.80
70533;BMP180;58088;51.186;17.130;2023-03-23T06:07:25;99500.60;;;13.82
70533;BMP180;58088;51.186;17.130;2023-03-23T06:09:58;99493.20;;;13.90
70533;BMP180;58088;51.186;17.130;2023-03-23T06:12:24;99495.40;;;14.10
70533;BMP180;58088;51.186;17.130;2023-03-23T06:15:04;99491.80;;;14.20
70533;BMP180;58088;51.186;17.130;2023-03-23T06:18:04;99485.40;;;14.30
70533;BMP180;58088;51.186;17.130;2023-03-23T06:20:46;99486.80;;;14.40
70533;BMP180;58088;51.186;17.130;2023-03-23T06:23:32;99486.80;;;14.50
70533;BMP180;58088;51.186;17.130;2023-03-23T06:26:06;99491.40;;;14.60
70533;BMP180;58088;51.186;17.130;2023-03-23T06:28:34;99481.80;;;14.70
70533;BMP180;58088;51.186;17.130;2023-03-23T06:31:03;99477.60;;;14.90
70533;BMP180;58088;51.186;17.130;2023-03-23T06:33:37;99489.00;;;15.04
70533;BMP180;58088;51.186;17.130;2023-03-23T06:36:22;99477.80;;;15.20
70533;BMP180;58088;51.186;17.130;2023-03-23T06:39:11;99482.00;;;15.40
70533;BMP180;58088;51.186;17.130;2023-03-23T06:41:58;99474.00;;;15.70
70533;BMP180;58088;51.186;17.130;2023-03-23T06:44:26;99480.20;;;15.98
70533;BMP180;58088;51.186;17.130;2023-03-23T06:46:53;99480.00;;;16.26
70533;BMP180;58088;51.186;17.130;2023-03-23T06:49:33;99480.60;;;16.50
70533;BMP180;58088;51.186;17.130;2023-03-23T06:52:06;99477.80;;;16.70
70533;BMP180;58088;51.186;17.130;2023-03-23T06:54:32;99485.80;;;16.90
70533;BMP180;58088;51.186;17.130;2023-03-23T06:57:00;99483.80;;;17.00
70533;BMP180;58088;51.186;17.130;2023-03-23T06:59:26;99480.80;;;17.10
70533;BMP180;58088;51.186;17.130;2023-03-23T07:01:53;99482.00;;;17.20
70533;BMP180;58088;51.186;17.130;2023-03-23T07:04:19;99479.80;;;17.30
70533;BMP180;58088;51.186;17.130;2023-03-23T07:06:55;99479.40;;;17.40
70533;BMP180;58088;51.186;17.130;2023-03-23T07:09:22;99475.80;;;17.60
70533;BMP180;58088;51.186;17.130;2023-03-23T07:11:49;99471.20;;;17.70
70533;BMP180;58088;51.186;17.130;2023-03-23T07:14:29;99474.80;;;17.80
70533;BMP180;58088;51.186;17.130;2023-03-23T07:16:56;99472.20;;;17.90
70533;BMP180;58088;51.186;17.130;2023-03-23T07:19:23;99477.20;;;18.00
70533;BMP180;58088;51.186;17.130;2023-03-23T07:21:49;99482.00;;;18.10
70533;BMP180;58088;51.186;17.130;2023-03-23T07:24:16;99479.20;;;18.10
70533;BMP180;58088;51.186;17.130;2023-03-23T07:27:03;99479.40;;;18.12
70533;BMP180;58088;51.186;17.130;2023-03-23T07:29:30;99483.60;;;18.10
70533;BMP180;58088;51.186;17.130;2023-03-23T07:32:06;99481.60;;;18.20
70533;BMP180;58088;51.186;17.130;2023-03-23T07:34:33;99474.80;;;18.20
70533;BMP180;58088;51.186;17.130;2023-03-23T07:37:19;99472.60;;;18.20
70533;BMP180;58088;51.186;17.130;2023-03-23T07:39:47;99470.00;;;18.20
70533;BMP180;58088;51.186;17.130;2023-03-23T07:42:14;99464.20;;;18.20
70533;BMP180;58088;51.186;17.130;2023-03-23T07:44:46;99465.40;;;18.30
70533;BMP180;58088;51.186;17.130;2023-03-23T07:47:13;99465.20;;;18.44
70533;BMP180;58088;51.186;17.130;2023-03-23T07:49:41;99464.00;;;18.64
70533;BMP180;58088;51.186;17.130;2023-03-23T07:52:41;99473.40;;;19.18
70533;BMP180;58088;51.186;17.130;2023-03-23T07:55:10;99473.20;;;19.60
70533;BMP180;58088;51.186;17.130;2023-03-23T07:58:18;99477.40;;;19.80
70533;BMP180;58088;51.186;17.130;2023-03-23T08:00:47;99468.40;;;19.90
70533;BMP180;58088;51.186;17.130;2023-03-23T08:03:16;99475.60;;;19.90
70533;BMP180;58088;51.186;17.130;2023-03-23T08:05:58;99470.20;;;19.82
70533;BMP180;58088;51.186;17.130;2023-03-23T08:08:43;99467.00;;;19.80
70533;BMP180;58088;51.186;17.130;2023-03-23T08:11:34;99466.20;;;19.76
70533;BMP180;58088;51.186;17.130;2023-03-23T08:14:26;99471.60;;;19.70
70533;BMP180;58088;51.186;17.130;2023-03-23T08:17:12;99472.80;;;19.60
70533;BMP180;58088;51.186;17.130;2023-03-23T08:19:53;99472.60;;;19.50
70533;BMP180;58088;51.186;17.130;2023-03-23T08:22:43;99468.60;;;19.46
70533;BMP180;58088;51.186;17.130;2023-03-23T08:25:39;99456.40;;;19.40
70533;BMP180;58088;51.186;17.130;2023-03-23T08:28:24;99457.00;;;19.40
70533;BMP180;58088;51.186;17.130;2023-03-23T08:31:13;99452.20;;;19.56
70533;BMP180;58088;51.186;17.130;2023-03-23T08:33:58;99449.40;;;19.80
70533;BMP180;58088;51.186;17.130;2023-03-23T08:36:57;99444.40;;;20.20
70533;BMP180;58088;51.186;17.130;2023-03-23T08:39:42;99446.20;;;20.46
70533;BMP180;58088;51.186;17.130;2023-03-23T08:42:12;99451.20;;;20.80
70533;BMP180;58088;51.186;17.130;2023-03-23T08:45:00;99455.00;;;21.10
70533;BMP180;58088;51.186;17.130;2023-03-23T08:47:50;99460.60;;;21.20
70533;BMP180;58088;51.186;17.130;2023-03-23T08:50:28;99460.20;;;21.14
70533;BMP180;58088;51.186;17.130;2023-03-23T08:53:16;99470.00;;;21.20
70533;BMP180;58088;51.186;17.130;2023-03-23T08:55:44;99475.80;;;21.30
70533;BMP180;58088;51.186;17.130;2023-03-23T08:58:31;99480.60;;;21.30
70533;BMP180;58088;51.186;17.130;2023-03-23T09:01:16;99471.60;;;21.20
70533;BMP180;58088;51.186;17.130;2023-03-23T09:03:43;99468.00;;;21.20
70533;BMP180;58088;51.186;17.130;2023-03-23T09:06:27;99464.80;;;21.38
70533;BMP180;58088;51.186;17.130;2023-03-23T09:08:54;99471.60;;;21.30
70533;BMP180;58088;51.186;17.130;2023-03-23T09:11:25;99477.60;;;21.20
70533;BMP180;58088;51.186;17.130;2023-03-23T09:13:51;99471.40;;;21.10
70533;BMP180;58088;51.186;17.130;2023-03-23T09:16:17;99472.00;;;21.10
70533;BMP180;58088;51.186;17.130;2023-03-23T09:18:44;99467.80;;;21.20
70533;BMP180;58088;51.186;17.130;2023-03-23T09:21:10;99475.40;;;21.20
70533;BMP180;58088;51.186;17.130;2023-03-23T09:23:36;99477.00;;;21.20
70533;BMP180;58088;51.186;17.130;2023-03-23T09:26:03;99477.00;;;21.20
70533;BMP180;58088;51.186;17.130;2023-03-23T09:28:30;99470.40;;;21.30
70533;BMP180;58088;51.186;17.130;2023-03-23T09:30:57;99470.60;;;21.30
70533;BMP180;58088;51.186;17.130;2023-03-23T09:33:25;99478.20;;;21.20
70533;BMP180;58088;51.186;17.130;2023-03-23T09:35:51;99470.20;;;21.10
70533;BMP180;58088;51.186;17.130;2023-03-23T09:38:18;99473.80;;;21.00
70533;BMP180;58088;51.186;17.130;2023-03-23T09:41:16;99478.00;;;21.00
70533;BMP180;58088;51.186;17.130;2023-03-23T09:47:38;99480.00;;;21.10
70533;BMP180;58088;51.186;17.130;2023-03-23T09:50:19;99481.40;;;21.10
70533;BMP180;58088;51.186;17.130;2023-03-23T09:53:27;99484.40;;;21.10
70533;BMP180;58088;51.186;17.130;2023-03-23T09:55:54;99486.60;;;21.10
70533;BMP180;58088;51.186;17.130;2023-03-23T09:58:33;99491.80;;;21.10
70533;BMP180;58088;51.186;17.130;2023-03-23T10:01:11;99491.40;;;21.00
70533;BMP180;58088;51.186;17.130;2023-03-23T10:03:42;99491.00;;;21.00
70533;BMP180;58088;51.186;17.130;2023-03-23T10:06:14;99484.40;;;21.10
70533;BMP180;58088;51.186;17.130;2023-03-23T10:09:04;99485.00;;;21.00
70533;BMP180;58088;51.186;17.130;2023-03-23T10:21:11;99480.40;;;21.20
70533;BMP180;58088;51.186;17.130;2023-03-23T10:24:00;99491.80;;;21.10
70533;BMP180;58088;51.186;17.130;2023-03-23T10:29:24;99495.60;;;21.08
70533;BMP180;58088;51.186;17.130;2023-03-23T10:32:00;99489.80;;;20.90
70533;BMP180;58088;51.186;17.130;2023-03-23T10:37:26;99489.00;;;21.00
70533;BMP180;58088;51.186;17.130;2023-03-23T10:39:56;99492.80;;;20.90
70533;BMP180;58088;51.186;17.130;2023-03-23T10:42:35;99493.20;;;20.90
70533;BMP180;58088;51.186;17.130;2023-03-23T10:48:19;99497.20;;;20.82
70533;BMP180;58088;51.186;17.130;2023-03-23T10:51:00;99507.40;;;20.70
70533;BMP180;58088;51.186;17.130;2023-03-23T10:53:44;99501.60;;;20.60
70533;BMP180;58088;51.186;17.130;2023-03-23T10:56:28;99510.00;;;20.60
70533;BMP180;58088;51.186;17.130;2023-03-23T10:58:55;99512.00;;;20.40
70533;BMP180;58088;51.186;17.130;2023-03-23T11:01:32;99509.80;;;20.30
70533;BMP180;58088;51.186;17.130;2023-03-23T11:04:00;99511.60;;;20.40
70533;BMP180;58088;51.186;17.130;2023-03-23T11:06:30;99518.20;;;20.50
70533;BMP180;58088;51.186;17.130;2023-03-23T11:09:16;99521.60;;;20.60
70533;BMP180;58088;51.186;17.130;2023-03-23T11:11:54;99506.60;;;20.80
70533;BMP180;58088;51.186;17.130;2023-03-23T11:14:29;99520.40;;;20.90
70533;BMP180;58088;51.186;17.130;2023-03-23T11:16:58;99516.20;;;20.90
70533;BMP180;58088;51.186;17.130;2023-03-23T11:19:32;99517.20;;;21.00
70533;BMP180;58088;51.186;17.130;2023-03-23T11:24:40;99513.00;;;21.10
70533;BMP180;58088;51.186;17.130;2023-03-23T11:27:07;99523.00;;;21.20
70533;BMP180;58088;51.186;17.130;2023-03-23T11:29:43;99523.60;;;21.26
70533;BMP180;58088;51.186;17.130;2023-03-23T11:32:13;99516.80;;;21.46
70533;BMP180;58088;51.186;17.130;2023-03-23T11:34:45;99513.40;;;21.60
70533;BMP180;58088;51.186;17.130;2023-03-23T11:37:39;99517.00;;;21.80
70533;BMP180;58088;51.186;17.130;2023-03-23T11:42:43;99533.60;;;21.70
70533;BMP180;58088;51.186;17.130;2023-03-23T11:51:10;99535.00;;;21.20
70533;BMP180;58088;51.186;17.130;2023-03-23T11:54:06;99533.60;;;21.20
70533;BMP180;58088;51.186;17.130;2023-03-23T11:56:38;99531.60;;;21.10
70533;BMP180;58088;51.186;17.130;2023-03-23T11:59:17;99525.00;;;21.10
70533;BMP180;58088;51.186;17.130;2023-03-23T12:08:10;99529.80;;;20.90
70533;BMP180;58088;51.186;17.130;2023-03-23T12:11:07;99528.40;;;20.80
70533;BMP180;58088;51.186;17.130;2023-03-23T12:14:10;99528.40;;;20.80
70533;BMP180;58088;51.186;17.130;2023-03-23T12:20:01;99532.40;;;20.70
70533;BMP180;58088;51.186;17.130;2023-03-23T12:23:18;99532.60;;;20.70
70533;BMP180;58088;51.186;17.130;2023-03-23T12:26:38;99534.00;;;20.72
70533;BMP180;58088;51.186;17.130;2023-03-23T12:49:39;99534.80;;;20.50
70533;BMP180;58088;51.186;17.130;2023-03-23T12:52:37;99526.80;;;20.50
70533;BMP180;58088;51.186;17.130;2023-03-23T12:55:17;99528.40;;;20.50
70533;BMP180;58088;51.186;17.130;2023-03-23T12:58:03;99526.60;;;20.50
70533;BMP180;58088;51.186;17.130;2023-03-23T13:01:10;99526.40;;;20.50
70533;BMP180;58088;51.186;17.130;2023-03-23T13:04:09;99529.80;;;20.60
70533;BMP180;58088;51.186;17.130;2023-03-23T13:06:46;99531.60;;;20.60
70533;BMP180;58088;51.186;17.130;2023-03-23T13:12:22;99524.20;;;20.60
70533;BMP180;58088;51.186;17.130;2023-03-23T13:18:02;99530.60;;;20.60
70533;BMP180;58088;51.186;17.130;2023-03-23T13:23:50;99529.40;;;20.50
70533;BMP180;58088;51.186;17.130;2023-03-23T13:26:21;99533.20;;;20.50
70533;BMP180;58088;51.186;17.130;2023-03-23T13:29:01;99529.20;;;20.50
70533;BMP180;58088;51.186;17.130;2023-03-23T13:31:41;99526.60;;;20.60
70533;BMP180;58088;51.186;17.130;2023-03-23T13:34:31;99523.60;;;20.60
70533;BMP180;58088;51.186;17.130;2023-03-23T13:37:04;99528.00;;;20.70
70533;BMP180;58088;51.186;17.130;2023-03-23T13:50:05;99531.20;;;20.80
70533;BMP180;58088;51.186;17.130;2023-03-23T13:55:29;99529.60;;;20.70
70533;BMP180;58088;51.186;17.130;2023-03-23T14:05:50;99525.00;;;20.50
70533;BMP180;58088;51.186;17.130;2023-03-23T14:11:00;99528.60;;;20.46
70533;BMP180;58088;51.186;17.130;2023-03-23T14:16:17;99529.00;;;20.40
70533;BMP180;58088;51.186;17.130;2023-03-23T14:19:00;99529.00;;;20.30
70533;BMP180;58088;51.186;17.130;2023-03-23T14:21:40;99522.40;;;20.20
70533;BMP180;58088;51.186;17.130;2023-03-23T14:24:16;99532.20;;;20.10
70533;BMP180;58088;51.186;17.130;2023-03-23T14:26:44;99535.80;;;20.08
70533;BMP180;58088;51.186;17.130;2023-03-23T14:29:13;99529.60;;;20.00
70533;BMP180;58088;51.186;17.130;2023-03-23T14:31:40;99526.40;;;19.96
70533;BMP180;58088;51.186;17.130;2023-03-23T14:34:16;99525.60;;;19.90
70533;BMP180;58088;51.186;17.130;2023-03-23T14:36:44;99523.00;;;19.80
70533;BMP180;58088;51.186;17.130;2023-03-23T14:39:27;99518.60;;;19.80
70533;BMP180;58088;51.186;17.130;2023-03-23T14:42:00;99518.80;;;19.90
70533;BMP180;58088;51.186;17.130;2023-03-23T14:44:33;99509.80;;;20.00
70533;BMP180;58088;51.186;17.130;2023-03-23T14:47:21;99509.20;;;20.10
70533;BMP180;58088;51.186;17.130;2023-03-23T14:49:55;99515.60;;;20.20
70533;BMP180;58088;51.186;17.130;2023-03-23T14:52:27;99520.20;;;20.20
70533;BMP180;58088;51.186;17.130;2023-03-23T14:54:54;99524.00;;;20.20
70533;BMP180;58088;51.186;17.130;2023-03-23T14:59:51;99518.80;;;20.20
70533;BMP180;58088;51.186;17.130;2023-03-23T15:02:27;99517.60;;;20.20
70533;BMP180;58088;51.186;17.130;2023-03-23T15:05:04;99517.80;;;20.20
70533;BMP180;58088;51.186;17.130;2023-03-23T15:07:35;99517.00;;;20.18
70533;BMP180;58088;51.186;17.130;2023-03-23T15:10:08;99515.20;;;20.10
70533;BMP180;58088;51.186;17.130;2023-03-23T15:12:36;99517.20;;;20.10
70533;BMP180;58088;51.186;17.130;2023-03-23T15:15:29;99518.60;;;20.10
70533;BMP180;58088;51.186;17.130;2023-03-23T15:17:57;99512.60;;;20.10
70533;BMP180;58088;51.186;17.130;2023-03-23T15:20:48;99517.00;;;20.10
70533;BMP180;58088;51.186;17.130;2023-03-23T15:23:21;99516.40;;;20.10
70533;BMP180;58088;51.186;17.130;2023-03-23T15:25:52;99508.00;;;20.10
70533;BMP180;58088;51.186;17.130;2023-03-23T15:28:31;99507.20;;;20.10
70533;BMP180;58088;51.186;17.130;2023-03-23T15:31:06;99501.20;;;20.10
70533;BMP180;58088;51.186;17.130;2023-03-23T15:33:38;99493.20;;;20.10
70533;BMP180;58088;51.186;17.130;2023-03-23T15:36:16;99490.20;;;20.10
70533;BMP180;58088;51.186;17.130;2023-03-23T15:38:47;99497.40;;;20.20
70533;BMP180;58088;51.186;17.130;2023-03-23T15:41:27;99498.00;;;20.10
70533;BMP180;58088;51.186;17.130;2023-03-23T15:43:58;99499.40;;;20.20
70533;BMP180;58088;51.186;17.130;2023-03-23T15:46:27;99501.40;;;20.18
70533;BMP180;58088;51.186;17.130;2023-03-23T15:51:30;99498.60;;;20.00
70533;BMP180;58088;51.186;17.130;2023-03-23T15:53:57;99502.40;;;19.98
70533;BMP180;58088;51.186;17.130;2023-03-23T15:56:25;99495.40;;;19.90
70533;BMP180;58088;51.186;17.130;2023-03-23T15:58:53;99497.00;;;19.82
70533;BMP180;58088;51.186;17.130;2023-03-23T16:01:30;99493.80;;;19.80
70533;BMP180;58088;51.186;17.130;2023-03-23T16:04:13;99494.40;;;19.72
70533;BMP180;58088;51.186;17.130;2023-03-23T16:06:41;99503.20;;;19.70
70533;BMP180;58088;51.186;17.130;2023-03-23T16:09:18;99510.20;;;19.60
70533;BMP180;58088;51.186;17.130;2023-03-23T16:11:46;99488.00;;;19.50
70533;BMP180;58088;51.186;17.130;2023-03-23T16:14:12;99490.20;;;19.50
70533;BMP180;58088;51.186;17.130;2023-03-23T16:16:49;99499.60;;;19.50
70533;BMP180;58088;51.186;17.130;2023-03-23T16:19:18;99500.80;;;19.40
70533;BMP180;58088;51.186;17.130;2023-03-23T16:21:49;99499.80;;;19.40
70533;BMP180;58088;51.186;17.130;2023-03-23T16:24:15;99504.40;;;19.40
70533;BMP180;58088;51.186;17.130;2023-03-23T16:26:41;99504.40;;;19.40
70533;BMP180;58088;51.186;17.130;2023-03-23T16:29:14;99516.60;;;19.30
70533;BMP180;58088;51.186;17.130;2023-03-23T16:31:41;99512.40;;;19.30
70533;BMP180;58088;51.186;17.130;2023-03-23T16:34:08;99518.60;;;19.30
70533;BMP180;58088;51.186;17.130;2023-03-23T16:36:35;99517.00;;;19.30
70533;BMP180;58088;51.186;17.130;2023-03-23T16:39:02;99514.60;;;19.20
70533;BMP180;58088;51.186;17.130;2023-03-23T16:41:28;99523.60;;;19.20